Flight Track Log - Related Links

Times and Time Zones

All times are in EDT time to prevent confusion due to time zone crossing. See the ASQ4209 flight status page for this flight to view local times or setup timezone preferences in your user account.

Time Position Orientation Groundspeed Altitude Reporting Facility
EDT Latitude Longitude Course Direction KTS MPH feet Rate Location/Type
Tue 08:54:00 PM 41.0403 -73.6361 56° Northeast  Level FlightAware Approximate
Tue 08:55:00 PM 41.1102 -73.5224 46° Northeast  Level FlightAware Approximate
Tue 08:56:00 PM 41.1822 -73.4103 53° Northeast  Level FlightAware Approximate
Tue 08:57:00 PM 41.2599 -73.3068 37° Northeast  Level FlightAware Approximate
Tue 08:58:00 PM 41.3317 -73.1946 53° Northeast  Level FlightAware Approximate
Tue 08:59:00 PM 41.3963 -73.0742 56° Northeast  Level FlightAware Approximate
Tue 09:00:00 PM 41.4567 -72.9500 62° Northeast  Level FlightAware Approximate
Tue 09:01:00 PM 41.5090 -72.8193 62° Northeast  Level FlightAware Approximate
Tue 09:02:00 PM 41.5634 -72.6900 56° Northeast  Level FlightAware Approximate
Tue 09:03:00 PM 41.6228 -72.5649 66° East  Level FlightAware Approximate
Tue 09:04:00 PM 41.6758 -72.4344 60° Northeast  Level FlightAware Approximate
Tue 09:05:00 PM 41.7310 -72.3054 60° Northeast  Level FlightAware Approximate
Tue 09:06:00 PM 41.7926 -72.1815 56° Northeast  Level FlightAware Approximate
Tue 09:07:00 PM 41.8501 -72.0540 59° Northeast  Level FlightAware Approximate
Tue 09:08:00 PM 41.9077 -71.9265 59° Northeast  Level FlightAware Approximate
Tue 09:09:00 PM 41.9780 -71.8193 20° North  Level FlightAware Approximate
Tue 09:10:00 PM 42.0713 -71.7386 33° Northeast  Level FlightAware Approximate
Tue 09:11:00 PM 42.1648 -71.6579 31° Northeast  Level FlightAware Approximate
Tue 09:12:00 PM 42.2601 -71.5807 31° Northeast  Level FlightAware Approximate
Tue 09:13:00 PM 42.3552 -71.5033 31° Northeast  Level FlightAware Approximate
Tue 09:14:00 PM 42.4504 -71.4257 31° Northeast  Level FlightAware Approximate
Tue 09:15:00 PM 42.5454 -71.3478 31° Northeast  Level FlightAware Approximate
Tue 09:16:00 PM 42.6393 -71.2672 33° Northeast  Level FlightAware Approximate
Tue 09:17:00 PM 42.7323 -71.1846 33° Northeast  Level FlightAware Approximate
Tue 09:18:00 PM 42.8253 -71.1019 33° Northeast  Level FlightAware Approximate
Tue 09:19:00 PM 42.9189 -71.0203 31° Northeast  Level FlightAware Approximate
Tue 09:20:00 PM 43.0135 -70.9410 31° Northeast  Level FlightAware Approximate
Tue 09:21:00 PM 43.1082 -70.8614 32° Northeast  Level FlightAware Approximate
Tue 09:22:00 PM 43.2028 -70.7816 32° Northeast  Level FlightAware Approximate
Tue 09:23:00 PM 43.2973 -70.7016 32° Northeast  Level FlightAware Approximate
Tue 09:24:00 PM 43.3917 -70.6212 32° Northeast  Level FlightAware Approximate
Tue 09:25:00 PM 43.4786 -70.5266 41° Northeast  Level FlightAware Approximate
Tue 09:26:00 PM 43.5627 -70.4265 41° Northeast  Level FlightAware Approximate
Tue 09:27:00 PM 43.6468 -70.3262 41° Northeast  Level FlightAware Approximate
Tue 09:28:00 PM 43.7307 -70.2256 41° Northeast  Level FlightAware Approximate
Tue 09:29:00 PM 43.8145 -70.1247 41° Northeast  Level FlightAware Approximate
Tue 09:30:00 PM 43.8983 -70.0236 41° Northeast  Level FlightAware Approximate
Tue 09:31:00 PM 43.9819 -69.9221 41° Northeast  Level FlightAware Approximate
Tue 09:32:00 PM 44.0655 -69.8204 41° Northeast  Level FlightAware Approximate
Tue 09:33:00 PM 44.1490 -69.7184 41° Northeast  Level FlightAware Approximate
Tue 09:34:00 PM 44.2324 -69.6161 41° Northeast  Level FlightAware Approximate
Tue 09:35:00 PM 44.3157 -69.5135 41° Northeast  Level FlightAware Approximate
Tue 09:36:00 PM 44.3989 -69.4106 41° Northeast  Level FlightAware Approximate
Tue 09:37:00 PM 44.4820 -69.3074 42° Northeast  Level FlightAware Approximate
Tue 09:38:00 PM 44.5650 -69.2039 42° Northeast  Level FlightAware Approximate
Tue 09:39:00 PM 44.6479 -69.1002 42° Northeast  Level FlightAware Approximate
Tue 09:40:00 PM 44.7308 -68.9961 42° Northeast  Level FlightAware Approximate
Tue 09:41:00 PM 44.8135 -68.8917 42° Northeast  Level FlightAware Approximate
Tue 09:42:00 PM 44.8376 -68.7478 87° East  Level FlightAware Approximate
Tue 09:43:00 PM 44.8430 -68.5914 87° East  Level FlightAware Approximate
Tue 09:44:00 PM 44.8482 -68.4349 87° East  Level FlightAware Approximate
Tue 09:45:00 PM 44.8531 -68.2784 87° East  Level FlightAware Approximate
Tue 09:46:00 PM 44.8579 -68.1219 87° East  Level FlightAware Approximate
Tue 09:47:00 PM 44.8624 -67.9653 88° East  Level FlightAware Approximate
Tue 09:48:00 PM 44.8668 -67.8087 88° East  Level FlightAware Approximate
Tue 09:49:00 PM 44.8709 -67.6521 88° East  Level FlightAware Approximate
Tue 09:50:00 PM 44.8748 -67.4955 88° East  Level FlightAware Approximate
Tue 09:51:00 PM 44.8785 -67.3389 88° East  Level FlightAware Approximate
Tue 09:52:00 PM 44.8819 -67.1822 88° East  Level FlightAware Approximate
Tue 09:53:00 PM 44.8833 -67.0255 90° East  Level FlightAware Approximate
Tue 09:54:00 PM 44.8894 -66.8690 86° East  Level FlightAware Approximate
Tue 09:55:00 PM 44.8965 -66.7126 86° East  Level FlightAware Approximate
Tue 09:56:00 PM 44.9000 -66.5559 90° East  Level FlightAware Approximate
Tue 09:57:00 PM 44.9002 -66.3991 90° East  Level FlightAware Approximate
Tue 09:58:00 PM 44.9002 -66.2423 90° East  Level FlightAware Approximate
Tue 09:59:00 PM 44.9000 -66.0856 90° East  Level FlightAware Approximate
Tue 10:00:00 PM 44.9167 -65.9311 90° East  Level FlightAware Approximate
Tue 10:01:00 PM 44.9168 -65.7742 90° East  Level FlightAware Approximate
Tue 10:02:00 PM 44.9167 -65.6174 90° East  Level FlightAware Approximate
Tue 10:03:00 PM 44.9168 -65.4606 90° East  Level FlightAware Approximate
Tue 10:04:00 PM 44.9169 -65.3037 90° East  Level FlightAware Approximate
Tue 10:05:00 PM 44.9168 -65.1469 90° East  Level FlightAware Approximate
Tue 10:06:00 PM 44.9168 -64.9901 90° East  Level FlightAware Approximate
Tue 10:07:00 PM 44.9170 -64.8332 90° East  Level FlightAware Approximate
Tue 10:08:00 PM 44.9170 -64.6764 90° East  Level FlightAware Approximate
Tue 10:09:00 PM 44.9168 -64.5195 90° East  Level FlightAware Approximate
Tue 10:10:00 PM 44.9167 -64.3627 90° East  Level FlightAware Approximate
Tue 10:11:00 PM 44.9167 -64.2059 90° East  Level FlightAware Approximate
Tue 10:12:00 PM 44.9168 -64.0490 90° East  Level FlightAware Approximate
Tue 10:13:00 PM 44.9167 -63.8922 90° East  Level FlightAware Approximate
Tue 10:14:00 PM 44.9167 -63.7354 90° East  Level FlightAware Approximate

Login

Don't have an account? Register now (free) for customized features, flight alerts, and more!